Time;durP1;ratioP1;P1;durP2;ratioP2;P2;SDS_P1;SDS_P2;PMS_P1;PMS_P2;Temp;Humidity;BMP_temperature;BMP_pressure;BME280_temperature;BME280_humidity;BME280_pressure;Samples;Min_cycle;Max_cycle;Signal;HPM_P1;HPM_P2
2021/10/09 12:43:15;;;;;;;20.80;10.75;;;18.40;99.90;;;;;;14730847;22;21103;-75
2021/10/09 12:49:02;;;;;;;19.83;10.27;;;18.60;99.90;;;;;;14777206;22;20032;-61
2021/10/09 12:54:49;;;;;;;16.38;10.40;;;18.90;99.90;;;;;;14783303;23;20107;-61
2021/10/09 13:00:38;;;;;;;18.15;11.00;;;19.20;99.90;;;;;;14798039;22;20039;-61
2021/10/09 13:06:25;;;;;;;15.27;9.02;;;19.30;99.90;;;;;;14796281;22;20429;-61
2021/10/09 13:12:14;;;;;;;16.20;9.02;;;19.30;99.90;;;;;;14794884;22;20028;-61
2021/10/09 13:18:02;;;;;;;14.13;8.23;;;19.50;99.90;;;;;;14781320;23;20103;-60
2021/10/09 13:23:49;;;;;;;19.30;9.10;;;19.70;99.90;;;;;;14780375;22;20031;-61
2021/10/09 13:29:36;;;;;;;15.38;9.18;;;19.80;99.90;;;;;;14781784;22;20031;-60
2021/10/09 13:35:25;;;;;;;15.45;9.60;;;19.90;99.90;;;;;;14782365;22;20064;-61
2021/10/09 13:41:12;;;;;;;13.55;8.98;;;20.00;99.90;;;;;;14780523;22;20032;-60
2021/10/09 13:46:59;;;;;;;18.30;9.60;;;20.10;99.20;;;;;;14765602;22;20048;-61
2021/10/09 13:52:47;;;;;;;14.48;8.70;;;20.20;98.60;;;;;;14752901;23;20031;-60
2021/10/09 13:58:34;;;;;;;25.63;8.88;;;20.30;98.50;;;;;;14758623;23;20024;-61
2021/10/09 14:04:21;;;;;;;16.05;9.27;;;20.30;98.10;;;;;;14756023;23;20020;-61
2021/10/09 14:10:10;;;;;;;20.40;9.80;;;20.40;98.10;;;;;;14759141;23;20059;-61
2021/10/09 14:15:57;;;;;;;13.30;8.68;;;20.50;96.60;;;;;;14762792;23;20029;-61
2021/10/09 14:21:44;;;;;;;16.00;8.82;;;20.40;95.90;;;;;;14772032;23;20048;-61
2021/10/09 14:27:32;;;;;;;18.30;9.93;;;20.30;94.80;;;;;;14781081;22;20095;-61
2021/10/09 14:33:19;;;;;;;15.25;9.57;;;20.40;96.50;;;;;;14781439;22;20112;-61
2021/10/09 14:39:06;;;;;;;19.10;10.60;;;20.60;95.80;;;;;;14781167;22;20044;-61
2021/10/09 14:44:54;;;;;;;22.55;10.55;;;20.70;96.00;;;;;;14775164;23;20497;-61
2021/10/09 14:50:58;;;;;;;15.90;9.65;;;20.70;94.70;;;;;;14761187;23;20029;-61
2021/10/09 15:21:17;;;;;;;14.00;8.82;;;20.50;93.50;;;;;;14778825;23;20021;-83
2021/10/09 15:27:04;;;;;;;16.13;10.65;;;20.50;93.70;;;;;;14767143;23;20037;-75
2021/10/09 15:32:51;;;;;;;20.30;9.73;;;20.60;93.60;;;;;;14764912;23;20373;-75
2021/10/09 15:38:40;;;;;;;14.05;9.40;;;20.50;93.90;;;;;;14765408;23;20083;-76
2021/10/09 15:44:28;;;;;;;15.70;9.77;;;20.40;94.40;;;;;;14765980;23;20610;-75
2021/10/09 15:50:15;;;;;;;16.83;9.40;;;20.30;94.80;;;;;;14765199;23;20095;-76
2021/10/09 15:56:04;;;;;;;17.85;11.45;;;20.10;95.20;;;;;;14763667;23;20033;-76
2021/10/09 16:01:51;;;;;;;14.75;9.27;;;20.00;95.60;;;;;;14766711;23;20029;-75
2021/10/09 16:07:38;;;;;;;15.05;9.05;;;19.80;95.90;;;;;;14765196;23;20016;-75
2021/10/09 16:13:29;;;;;;;16.25;9.68;;;19.60;96.30;;;;;;14766454;23;20400;-75
2021/10/09 16:19:16;;;;;;;16.40;10.00;;;19.50;96.30;;;;;;14766088;23;20525;-74
2021/10/09 16:25:03;;;;;;;15.27;9.35;;;19.20;97.00;;;;;;14765343;23;20528;-76
2021/10/09 16:30:51;;;;;;;18.60;10.48;;;18.90;97.20;;;;;;14741632;23;20162;-74
2021/10/09 16:36:39;;;;;;;16.40;11.52;;;18.70;97.80;;;;;;14767142;23;20029;-75
2021/10/09 16:42:26;;;;;;;16.27;10.30;;;18.50;99.20;;;;;;14750799;23;20111;-76
2021/10/09 16:48:14;;;;;;;21.15;10.57;;;18.40;99.90;;;;;;14767050;23;20385;-75
2021/10/09 16:54:01;;;;;;;22.23;10.32;;;18.20;99.90;;;;;;14770131;23;20029;-75
2021/10/09 16:59:51;;;;;;;21.40;10.73;;;17.90;99.90;;;;;;14770744;23;20092;-75
2021/10/09 17:05:39;;;;;;;24.13;11.50;;;17.70;99.90;;;;;;14772568;23;20033;-76
2021/10/09 17:11:26;;;;;;;27.48;12.65;;;17.50;99.90;;;;;;14771043;23;20013;-75
2021/10/09 17:17:13;;;;;;;17.92;11.57;;;17.30;99.90;;;;;;14769659;23;20453;-75
2021/10/09 17:23:02;;;;;;;20.25;12.35;;;17.00;99.90;;;;;;14771539;23;20032;-75
2021/10/09 17:28:48;;;;;;;25.38;12.95;;;16.70;99.90;;;;;;14770127;23;20024;-75
2021/10/09 17:34:36;;;;;;;20.45;11.85;;;16.30;99.90;;;;;;14775867;23;20020;-75
2021/10/09 17:40:25;;;;;;;20.90;12.82;;;16.30;99.90;;;;;;14774981;23;20357;-75
2021/10/09 17:46:11;;;;;;;23.92;13.20;;;16.30;99.90;;;;;;14775430;23;20025;-75
2021/10/09 17:51:58;;;;;;;21.42;12.73;;;16.20;99.90;;;;;;14790864;23;20024;-76
2021/10/09 17:57:47;;;;;;;25.48;13.15;;;16.10;99.90;;;;;;14826737;23;20021;-75
2021/10/09 18:03:34;;;;;;;19.23;12.73;;;16.00;99.90;;;;;;14823623;23;20318;-75
2021/10/09 18:09:21;;;;;;;29.42;13.70;;;16.00;99.90;;;;;;14809002;23;20566;-75
2021/10/09 18:15:12;;;;;;;22.48;13.35;;;15.90;99.90;;;;;;14776622;23;20032;-75
